Eurocargo Valencia — IBGZ — position and weather

sailwx.info

Track history (hours):
 
Tides and Currents Weather Stations Pressure Air Temp Water Temp Dewpoint Dewpoint Depression Visibility Wind Speed Wind Dir Waves Ship Positions

Eurocargo Valencia

Last reported at 2017-Jun-27 08:30 UTC. Time now 2017-Jun-27 08:54 UTC.
Position N 37°32' E 015°13'.

Length 196 m; draft 6.5 m.

Type: Cargo ship. MMSI: 247579000.

Date/timePositionNaut miles runAvg speedWind from/ knotsBaromVisibWave heightAir tempDewpointWater temp
2017-Jun-27 08:30N 37°32' E 015°13'815.9
2017-Jun-27 08:00N 37°39' E 015°17'816.0
2017-Jun-27 07:30N 37°46' E 015°22'816.2
2017-Jun-27 07:00N 37°54' E 015°26'816.7
2017-Jun-27 06:30N 38°01' E 015°31'816.3
2017-Jun-27 06:00N 38°09' E 015°35'714.5
2017-Jun-27 05:30N 38°15' E 015°39'611.6
2017-Jun-27 05:00N 38°21' E 015°39'714.8
2017-Jun-27 04:30N 38°28' E 015°36'815.7
2017-Jun-27 04:00N 38°35' E 015°33'815.7
2017-Jun-27 03:30N 38°43' E 015°29'815.7
2017-Jun-27 03:00N 38°50' E 015°25'816.1
2017-Jun-27 02:30N 38°58' E 015°22'6316.4
2017-Jun-26 22:38N 39°57' E 014°53'216.4
2017-Jun-26 22:30N 39°59' E 014°52'816.0
2017-Jun-26 22:00N 40°06' E 014°48'816.2
2017-Jun-26 21:31N 40°14' E 014°45'816.4
2017-Jun-26 21:00N 40°22' E 014°44'16 0.6
2017-Jun-25 18:02N 40°38' E 014°45'0 0.3
2017-Jun-25 17:35N 40°39' E 014°45'0 0.1
2017-Jun-25 17:29N 40°39' E 014°45'0 0.0
2017-Jun-25 16:59N 40°39' E 014°45'0 0.3
2017-Jun-25 15:47N 40°38' E 014°45'0 0.1
2017-Jun-25 15:26N 40°38' E 014°45'0 0.1
2017-Jun-25 14:53N 40°38' E 014°45'0 0.0
2017-Jun-25 14:23N 40°38' E 014°45'55 6.3
2017-Jun-25 05:46N 39°45' E 014°59'5916.6
2017-Jun-25 02:14N 38°50' E 015°27'516.8
2017-Jun-25 01:56N 38°45' E 015°29'816.9
2017-Jun-25 01:29N 38°38' E 015°32'816.6
2017-Jun-25 01:00N 38°31' E 015°36'816.6
2017-Jun-25 00:30N 38°23' E 015°40'714.3
2017-Jun-25 00:00N 38°16' E 015°41'713.4
2017-Jun-24 23:30N 38°10' E 015°37'715.2
2017-Jun-24 23:00N 38°03' E 015°33'1016.1
2017-Jun-24 22:22N 37°54' E 015°27'2116.3
2017-Jun-24 21:04N 37°35' E 015°15'116.7
2017-Jun-24 21:00N 37°34' E 015°14'8 0.9
2017-Jun-24 12:13N 37°30' E 015°06'0 0.0
2017-Jun-24 11:49N 37°30' E 015°06'0 0.0
2017-Jun-24 11:22N 37°30' E 015°06'0 0.0
2017-Jun-24 10:55N 37°30' E 015°06'0 0.0
2017-Jun-24 09:58N 37°30' E 015°06'0 0.9
2017-Jun-24 09:29N 37°29' E 015°06'510.2
2017-Jun-24 08:58N 37°30' E 015°12'816.6
2017-Jun-24 08:30N 37°37' E 015°16'816.5
2017-Jun-24 08:01N 37°45' E 015°21'816.4
2017-Jun-24 07:30N 37°52' E 015°25'816.8
2017-Jun-24 07:01N 37°60' E 015°30'917.1
2017-Jun-24 06:31N 38°08' E 015°34'815.4
2017-Jun-24 06:01N 38°15' E 015°38'714.0
2017-Jun-24 05:31N 38°22' E 015°39'816.6
2017-Jun-24 05:00N 38°30' E 015°35'816.3
2017-Jun-24 04:30N 38°37' E 015°31'128 6.8
2017-Jun-23 09:45N 40°40' E 014°45'11515.7
2017-Jun-23 02:25N 38°50' E 015°27'716.8
2017-Jun-23 02:00N 38°43' E 015°30'816.6
2017-Jun-23 01:30N 38°35' E 015°34'816.8
2017-Jun-23 01:00N 38°28' E 015°38'817.0
2017-Jun-23 00:30N 38°20' E 015°42'715.2
2017-Jun-23 00:00N 38°13' E 015°37'815.7
2017-Jun-22 23:30N 38°06' E 015°34'1316.2
2017-Jun-22 22:43N 37°54' E 015°27'8 0.5
2017-Jun-22 06:24N 38°02' E 015°31'916.6
2017-Jun-22 05:52N 38°10' E 015°35'1414.4
2017-Jun-22 04:53N 38°24' E 015°38'9516.1
2017-Jun-21 23:01N 39°52' E 014°56'36 1.8
2017-Jun-21 03:24N 39°18' E 015°12'717.1
2017-Jun-21 02:58N 39°12' E 015°16'2116.8
2017-Jun-21 01:44N 38°53' E 015°26'817.0
2017-Jun-21 01:17N 38°45' E 015°29'516.8
2017-Jun-21 01:00N 38°41' E 015°32'916.7
2017-Jun-21 00:29N 38°33' E 015°35'817.7
2017-Jun-21 00:01N 38°25' E 015°39'1015.3
2017-Jun-20 23:22N 38°15' E 015°41'615.3
2017-Jun-20 23:01N 38°11' E 015°37'816.5
2017-Jun-20 22:31N 38°03' E 015°33'1016.3
2017-Jun-20 21:54N 37°54' E 015°27'8 0.5
2017-Jun-20 05:40N 38°02' E 015°31'316.5
2017-Jun-20 05:29N 38°04' E 015°32'815.9
2017-Jun-20 04:59N 38°12' E 015°36'1013.3
2017-Jun-20 04:15N 38°21' E 015°39'414.7
2017-Jun-20 04:00N 38°25' E 015°38'815.0
2017-Jun-20 03:30N 38°32' E 015°34'10215.7
2017-Jun-19 20:59N 40°08' E 014°48'78 1.9
2017-Jun-18 03:02N 38°55' E 015°24'816.9
2017-Jun-18 02:33N 38°47' E 015°28'516.8
2017-Jun-18 02:15N 38°43' E 015°30'516.9
2017-Jun-18 01:58N 38°38' E 015°33'817.0
2017-Jun-18 01:30N 38°31' E 015°36'816.7
2017-Jun-18 01:00N 38°23' E 015°40'813.4
2017-Jun-18 00:25N 38°15' E 015°39'615.1
2017-Jun-18 00:00N 38°09' E 015°37'816.1
2017-Jun-17 23:30N 38°02' E 015°32'915.9
2017-Jun-17 22:57N 37°54' E 015°27'  
Track history (hours):
 
Tides and Currents Weather Stations Pressure Air Temp Water Temp Dewpoint Dewpoint Depression Visibility Wind Speed Wind Dir Waves Ship Positions

Eurocargo Valencia

Last reported at 2017-Jun-27 08:30 UTC. Time now 2017-Jun-27 08:54 UTC.
Position N 37°32' E 015°13'.

Length 196 m; draft 6.5 m.

Type: Cargo ship. MMSI: 247579000.

Date/timePositionNaut miles runAvg speedWind from/ knotsBaromVisibWave heightAir tempDewpointWater temp
2017-Jun-27 08:30N 37°32' E 015°13'815.9
2017-Jun-27 08:00N 37°39' E 015°17'816.0
2017-Jun-27 07:30N 37°46' E 015°22'816.2
2017-Jun-27 07:00N 37°54' E 015°26'816.7
2017-Jun-27 06:30N 38°01' E 015°31'816.3
2017-Jun-27 06:00N 38°09' E 015°35'714.5
2017-Jun-27 05:30N 38°15' E 015°39'611.6
2017-Jun-27 05:00N 38°21' E 015°39'714.8
2017-Jun-27 04:30N 38°28' E 015°36'815.7
2017-Jun-27 04:00N 38°35' E 015°33'815.7
2017-Jun-27 03:30N 38°43' E 015°29'815.7
2017-Jun-27 03:00N 38°50' E 015°25'816.1
2017-Jun-27 02:30N 38°58' E 015°22'6316.4
2017-Jun-26 22:38N 39°57' E 014°53'216.4
2017-Jun-26 22:30N 39°59' E 014°52'816.0
2017-Jun-26 22:00N 40°06' E 014°48'816.2
2017-Jun-26 21:31N 40°14' E 014°45'816.4
2017-Jun-26 21:00N 40°22' E 014°44'16 0.6
2017-Jun-25 18:02N 40°38' E 014°45'0 0.3
2017-Jun-25 17:35N 40°39' E 014°45'0 0.1
2017-Jun-25 17:29N 40°39' E 014°45'0 0.0
2017-Jun-25 16:59N 40°39' E 014°45'0 0.3
2017-Jun-25 15:47N 40°38' E 014°45'0 0.1
2017-Jun-25 15:26N 40°38' E 014°45'0 0.1
2017-Jun-25 14:53N 40°38' E 014°45'0 0.0
2017-Jun-25 14:23N 40°38' E 014°45'55 6.3
2017-Jun-25 05:46N 39°45' E 014°59'5916.6
2017-Jun-25 02:14N 38°50' E 015°27'516.8
2017-Jun-25 01:56N 38°45' E 015°29'816.9
2017-Jun-25 01:29N 38°38' E 015°32'816.6
2017-Jun-25 01:00N 38°31' E 015°36'816.6
2017-Jun-25 00:30N 38°23' E 015°40'714.3
2017-Jun-25 00:00N 38°16' E 015°41'713.4
2017-Jun-24 23:30N 38°10' E 015°37'715.2
2017-Jun-24 23:00N 38°03' E 015°33'1016.1
2017-Jun-24 22:22N 37°54' E 015°27'2116.3
2017-Jun-24 21:04N 37°35' E 015°15'116.7
2017-Jun-24 21:00N 37°34' E 015°14'8 0.9
2017-Jun-24 12:13N 37°30' E 015°06'0 0.0
2017-Jun-24 11:49N 37°30' E 015°06'0 0.0
2017-Jun-24 11:22N 37°30' E 015°06'0 0.0
2017-Jun-24 10:55N 37°30' E 015°06'0 0.0
2017-Jun-24 09:58N 37°30' E 015°06'0 0.9
2017-Jun-24 09:29N 37°29' E 015°06'510.2
2017-Jun-24 08:58N 37°30' E 015°12'816.6
2017-Jun-24 08:30N 37°37' E 015°16'816.5
2017-Jun-24 08:01N 37°45' E 015°21'816.4
2017-Jun-24 07:30N 37°52' E 015°25'816.8
2017-Jun-24 07:01N 37°60' E 015°30'917.1
2017-Jun-24 06:31N 38°08' E 015°34'815.4
2017-Jun-24 06:01N 38°15' E 015°38'714.0
2017-Jun-24 05:31N 38°22' E 015°39'816.6
2017-Jun-24 05:00N 38°30' E 015°35'816.3
2017-Jun-24 04:30N 38°37' E 015°31'128 6.8
2017-Jun-23 09:45N 40°40' E 014°45'11515.7
2017-Jun-23 02:25N 38°50' E 015°27'716.8
2017-Jun-23 02:00N 38°43' E 015°30'816.6
2017-Jun-23 01:30N 38°35' E 015°34'816.8
2017-Jun-23 01:00N 38°28' E 015°38'817.0
2017-Jun-23 00:30N 38°20' E 015°42'715.2
2017-Jun-23 00:00N 38°13' E 015°37'815.7
2017-Jun-22 23:30N 38°06' E 015°34'1316.2
2017-Jun-22 22:43N 37°54' E 015°27'8 0.5
2017-Jun-22 06:24N 38°02' E 015°31'916.6
2017-Jun-22 05:52N 38°10' E 015°35'1414.4
2017-Jun-22 04:53N 38°24' E 015°38'9516.1
2017-Jun-21 23:01N 39°52' E 014°56'36 1.8
2017-Jun-21 03:24N 39°18' E 015°12'717.1
2017-Jun-21 02:58N 39°12' E 015°16'2116.8
2017-Jun-21 01:44N 38°53' E 015°26'817.0
2017-Jun-21 01:17N 38°45' E 015°29'516.8
2017-Jun-21 01:00N 38°41' E 015°32'916.7
2017-Jun-21 00:29N 38°33' E 015°35'817.7
2017-Jun-21 00:01N 38°25' E 015°39'1015.3
2017-Jun-20 23:22N 38°15' E 015°41'615.3
2017-Jun-20 23:01N 38°11' E 015°37'816.5
2017-Jun-20 22:31N 38°03' E 015°33'1016.3
2017-Jun-20 21:54N 37°54' E 015°27'8 0.5
2017-Jun-20 05:40N 38°02' E 015°31'316.5
2017-Jun-20 05:29N 38°04' E 015°32'815.9
2017-Jun-20 04:59N 38°12' E 015°36'1013.3
2017-Jun-20 04:15N 38°21' E 015°39'414.7
2017-Jun-20 04:00N 38°25' E 015°38'815.0
2017-Jun-20 03:30N 38°32' E 015°34'10215.7
2017-Jun-19 20:59N 40°08' E 014°48'78 1.9
2017-Jun-18 03:02N 38°55' E 015°24'816.9
2017-Jun-18 02:33N 38°47' E 015°28'516.8
2017-Jun-18 02:15N 38°43' E 015°30'516.9
2017-Jun-18 01:58N 38°38' E 015°33'817.0
2017-Jun-18 01:30N 38°31' E 015°36'816.7
2017-Jun-18 01:00N 38°23' E 015°40'813.4
2017-Jun-18 00:25N 38°15' E 015°39'615.1
2017-Jun-18 00:00N 38°09' E 015°37'816.1
2017-Jun-17 23:30N 38°02' E 015°32'915.9
2017-Jun-17 22:57N 37°54' E 015°27'  

Dump ship's entire track history